Terminal Aerodrome Forecast
Issued by NWS Missoula, MT

Home | Current Version | Previous Version | Text Only | Print | Product List | Glossary On
Versions: 1 2 3 4 5 6 7 8 9 10 11 12 13 14 15 16 17 18 19 20 21 22 23 24 25 26 27 28 29 30 31 32 33
000
FTUS45 KMSO 230525 AAA
TAFMSO
TAF AMD
KMSO 230525Z 2305/2406 34003KT 2SM BR FEW003
      TEMPO 2305/2307 1/2SM FG VV003
     FM231100 VRB03KT 5SM BR FEW010 BKN040 OVC070
     FM231500 VRB05KT P6SM BKN040 OVC070
     FM232000 25012KT P6SM -SHRA SCT030 OVC050=

USA.gov is the U.S. government's official web portal to all federal, state and local government web resources and services.